Time;durP1;ratioP1;P1;durP2;ratioP2;P2;SDS_P1;SDS_P2;PMS_P1;PMS_P2;Temp;Humidity;BMP_temperature;BMP_pressure;BME280_temperature;BME280_humidity;BME280_pressure;Samples;Min_cycle;Max_cycle;Signal;HPM_P1;HPM_P2
2023/10/24 00:01:42;;;;;;;;;;;;;;;10.71;100.00;100262.53;5031727;28;20011;-75
2023/10/24 00:04:07;;;;;;;;;;;;;;;10.78;100.00;100265.50;5028025;28;20000;-75
2023/10/24 00:06:32;;;;;;;;;;;;;;;10.81;100.00;100265.25;5030262;28;20000;-73
2023/10/24 00:08:57;;;;;;;;;;;;;;;10.86;100.00;100271.03;5029433;28;20313;-74
2023/10/24 00:11:23;;;;;;;;;;;;;;;10.83;100.00;100262.41;5033302;28;19931;-73
2023/10/24 00:13:48;;;;;;;;;;;;;;;10.89;100.00;100275.31;5016200;28;20451;-74
2023/10/24 00:16:13;;;;;;;;;;;;;;;10.89;100.00;100261.88;5031981;28;20430;-74
2023/10/24 00:18:38;;;;;;;;;;;;;;;10.87;100.00;100267.38;5031380;28;20343;-76
2023/10/24 00:21:04;;;;;;;;;;;;;;;10.88;100.00;100263.69;5035310;28;19920;-75
2023/10/24 00:23:29;;;;;;;;;;;;;;;10.92;100.00;100257.06;5031357;28;19976;-74
2023/10/24 00:25:54;;;;;;;;;;;;;;;10.96;100.00;100254.97;5034554;28;19959;-73
2023/10/24 00:28:19;;;;;;;;;;;;;;;10.94;100.00;100256.94;5030916;28;20878;-74
2023/10/24 00:30:45;;;;;;;;;;;;;;;10.90;100.00;100261.72;5032262;28;19920;-74
2023/10/24 00:33:10;;;;;;;;;;;;;;;10.93;100.00;100260.63;5031686;28;20029;-72
2023/10/24 00:35:35;;;;;;;;;;;;;;;10.90;100.00;100255.53;5031488;28;19920;-74
2023/10/24 00:38:00;;;;;;;;;;;;;;;10.88;100.00;100269.06;5031767;28;19921;-76
2023/10/24 00:40:25;;;;;;;;;;;;;;;10.89;100.00;100257.34;5035078;28;19920;-73
2023/10/24 00:42:51;;;;;;;;;;;;;;;10.90;100.00;100258.22;5031853;28;19960;-74
2023/10/24 00:45:16;;;;;;;;;;;;;;;10.83;100.00;100257.91;5015544;28;20043;-72
2023/10/24 00:47:41;;;;;;;;;;;;;;;10.92;100.00;100253.56;5032293;28;19921;-73
2023/10/24 00:50:07;;;;;;;;;;;;;;;10.89;100.00;100260.03;5033105;28;19924;-75
2023/10/24 00:52:32;;;;;;;;;;;;;;;10.81;100.00;100254.50;5031371;28;19967;-73
2023/10/24 00:54:57;;;;;;;;;;;;;;;10.85;100.00;100265.81;5031854;28;20517;-75
2023/10/24 00:57:23;;;;;;;;;;;;;;;10.85;100.00;100264.00;5031536;28;19948;-73
2023/10/24 00:59:48;;;;;;;;;;;;;;;10.92;100.00;100264.28;5029614;28;20051;-74
2023/10/24 01:02:14;;;;;;;;;;;;;;;10.83;100.00;100275.84;5030517;28;20391;-75
2023/10/24 01:04:39;;;;;;;;;;;;;;;10.80;100.00;100264.38;5067032;28;20066;-77
2023/10/24 01:07:04;;;;;;;;;;;;;;;10.84;100.00;100267.66;5015047;28;20064;-73
2023/10/24 01:09:29;;;;;;;;;;;;;;;10.90;100.00;100277.00;5031449;28;19941;-75
2023/10/24 01:11:55;;;;;;;;;;;;;;;10.84;100.00;100273.03;5033331;28;19928;-74
2023/10/24 01:14:20;;;;;;;;;;;;;;;10.84;100.00;100273.03;5032387;28;19924;-73
2023/10/24 01:16:45;;;;;;;;;;;;;;;10.88;100.00;100273.59;5032916;28;19967;-77
2023/10/24 01:19:11;;;;;;;;;;;;;;;10.85;100.00;100272.06;5033236;28;19963;-73
2023/10/24 01:21:37;;;;;;;;;;;;;;;10.83;100.00;100260.59;5038869;28;19920;-73
2023/10/24 01:24:02;;;;;;;;;;;;;;;10.90;100.00;100263.56;5032719;28;19925;-76
2023/10/24 01:26:27;;;;;;;;;;;;;;;10.87;100.00;100255.78;5032156;28;19925;-74
2023/10/24 01:28:52;;;;;;;;;;;;;;;10.91;100.00;100259.91;5038720;28;19979;-73
2023/10/24 01:31:18;;;;;;;;;;;;;;;10.90;100.00;100267.09;5035813;28;20027;-75
2023/10/24 01:33:43;;;;;;;;;;;;;;;10.93;100.00;100266.00;5037066;28;20220;-74
2023/10/24 01:36:08;;;;;;;;;;;;;;;10.95;100.00;100255.97;5036619;28;20331;-74
2023/10/24 01:38:33;;;;;;;;;;;;;;;10.95;100.00;100253.28;5033606;28;19920;-74
2023/10/24 01:40:59;;;;;;;;;;;;;;;10.96;100.00;100260.34;5037889;28;19974;-76
2023/10/24 01:43:24;;;;;;;;;;;;;;;10.98;100.00;100255.69;5036624;28;20227;-73
2023/10/24 01:45:49;;;;;;;;;;;;;;;10.97;100.00;100248.63;5035775;28;19917;-74
2023/10/24 01:48:14;;;;;;;;;;;;;;;10.97;100.00;100245.06;5033711;28;20032;-73
2023/10/24 01:50:39;;;;;;;;;;;;;;;10.99;100.00;100243.94;5032816;28;19929;-76
2023/10/24 01:53:05;;;;;;;;;;;;;;;10.99;100.00;100238.56;5034772;28;19920;-76
2023/10/24 01:55:30;;;;;;;;;;;;;;;11.00;100.00;100232.22;5039633;28;19947;-72
2023/10/24 01:57:55;;;;;;;;;;;;;;;10.98;100.00;100236.91;5041170;28;20011;-73
2023/10/24 02:00:20;;;;;;;;;;;;;;;10.99;100.00;100229.66;5043812;28;19929;-72
2023/10/24 02:02:46;;;;;;;;;;;;;;;10.91;100.00;100228.50;5023818;28;19920;-73
2023/10/24 02:05:12;;;;;;;;;;;;;;;10.93;100.00;100228.41;5041485;28;20287;-75
2023/10/24 02:07:37;;;;;;;;;;;;;;;11.03;100.00;100214.97;5016825;28;19959;-74
2023/10/24 02:10:03;;;;;;;;;;;;;;;10.93;100.00;100218.47;5035655;28;19924;-73
2023/10/24 02:12:28;;;;;;;;;;;;;;;10.92;100.00;100210.56;5033445;28;19921;-75
2023/10/24 02:14:53;;;;;;;;;;;;;;;10.91;100.00;100223.13;5037452;28;20007;-73
2023/10/24 02:17:18;;;;;;;;;;;;;;;10.92;100.00;100227.53;5035753;28;19925;-75
2023/10/24 02:19:44;;;;;;;;;;;;;;;10.92;100.00;100229.38;5034796;28;19923;-74
2023/10/24 02:22:09;;;;;;;;;;;;;;;10.89;100.00;100233.16;5035521;28;20101;-75
2023/10/24 02:24:34;;;;;;;;;;;;;;;10.88;100.00;100234.16;5035290;28;19920;-73
2023/10/24 02:26:59;;;;;;;;;;;;;;;10.88;100.00;100236.84;5035519;28;19925;-75
2023/10/24 02:29:25;;;;;;;;;;;;;;;10.86;100.00;100224.53;5033760;28;19970;-73
2023/10/24 02:31:50;;;;;;;;;;;;;;;10.83;100.00;100228.38;5031412;28;20109;-75
2023/10/24 02:34:15;;;;;;;;;;;;;;;10.79;100.00;100222.41;5032180;28;19932;-75
2023/10/24 02:36:40;;;;;;;;;;;;;;;10.80;100.00;100229.47;5032457;28;19921;-73
2023/10/24 02:39:05;;;;;;;;;;;;;;;10.77;100.00;100232.44;5029535;28;19925;-73
2023/10/24 02:41:31;;;;;;;;;;;;;;;10.76;100.00;100230.72;5030718;28;19927;-73
2023/10/24 02:43:56;;;;;;;;;;;;;;;10.78;100.00;100233.28;5040705;28;20407;-77
2023/10/24 02:46:21;;;;;;;;;;;;;;;10.79;100.00;100229.63;5036105;28;20015;-75
2023/10/24 02:48:47;;;;;;;;;;;;;;;10.83;100.00;100240.94;5034337;28;19955;-74
2023/10/24 02:51:12;;;;;;;;;;;;;;;10.83;100.00;100235.56;5036655;28;19952;-73
2023/10/24 02:53:37;;;;;;;;;;;;;;;10.79;100.00;100243.88;5036346;28;19974;-74
2023/10/24 02:56:03;;;;;;;;;;;;;;;10.55;100.00;100205.78;5034911;28;20039;-72
2023/10/24 02:58:28;;;;;;;;;;;;;;;10.84;100.00;100250.69;5038244;28;19920;-75
2023/10/24 03:00:53;;;;;;;;;;;;;;;10.79;100.00;100254.63;5039056;28;19925;-75
2023/10/24 03:03:18;;;;;;;;;;;;;;;10.83;100.00;100252.53;5037877;28;20273;-75
2023/10/24 03:05:43;;;;;;;;;;;;;;;10.83;100.00;100254.34;5036577;28;19924;-75
2023/10/24 03:08:09;;;;;;;;;;;;;;;10.81;100.00;100251.81;5039871;28;20037;-73
2023/10/24 03:10:40;;;;;;;;;;;;;;;10.76;100.00;100257.56;5036629;28;20224;-74
2023/10/24 03:13:05;;;;;;;;;;;;;;;10.77;100.00;100251.22;5036569;28;19928;-73
2023/10/24 03:15:30;;;;;;;;;;;;;;;10.76;100.00;100237.94;5017848;28;19921;-74
2023/10/24 03:17:55;;;;;;;;;;;;;;;10.77;100.00;100251.22;5037268;28;19927;-74
2023/10/24 03:20:21;;;;;;;;;;;;;;;10.76;100.00;100251.38;5034963;28;19944;-72
2023/10/24 03:22:46;;;;;;;;;;;;;;;10.80;100.00;100255.50;5034798;28;19920;-72
2023/10/24 03:25:11;;;;;;;;;;;;;;;10.74;100.00;100256.84;5033007;28;19924;-73
2023/10/24 03:27:36;;;;;;;;;;;;;;;10.70;100.00;100246.53;5026526;28;19920;-74
2023/10/24 03:30:02;;;;;;;;;;;;;;;10.71;100.00;100249.09;5019463;28;19992;-73
2023/10/24 03:32:27;;;;;;;;;;;;;;;10.68;100.00;100254.75;5016786;28;19970;-73
2023/10/24 03:34:52;;;;;;;;;;;;;;;10.66;100.00;100256.69;5016940;28;20347;-75
2023/10/24 03:37:19;;;;;;;;;;;;;;;10.65;100.00;100250.47;5031125;28;20418;-78
2023/10/24 03:39:45;;;;;;;;;;;;;;;10.69;100.00;100245.69;5029435;28;20407;-74
2023/10/24 03:42:14;;;;;;;;;;;;;;;10.65;100.00;100249.63;5065342;28;19952;-72
2023/10/24 03:44:39;;;;;;;;;;;;;;;10.67;100.00;100241.44;5030421;28;20533;-72
2023/10/24 03:47:04;;;;;;;;;;;;;;;10.67;100.00;100241.44;5018205;28;19917;-73
2023/10/24 03:49:30;;;;;;;;;;;;;;;10.62;100.00;100242.69;5018161;28;19921;-75
2023/10/24 03:51:55;;;;;;;;;;;;;;;10.62;100.00;100241.84;5033821;28;19920;-73
2023/10/24 03:54:20;;;;;;;;;;;;;;;10.57;100.00;100246.75;5027001;28;19952;-73
2023/10/24 03:56:45;;;;;;;;;;;;;;;10.57;100.00;100239.56;5020080;28;20228;-72
2023/10/24 03:59:11;;;;;;;;;;;;;;;10.57;100.00;100241.38;5038496;28;19960;-72
2023/10/24 04:01:36;;;;;;;;;;;;;;;10.56;100.00;100245.06;5038232;28;19999;-74
2023/10/24 04:04:01;;;;;;;;;;;;;;;10.56;100.00;100250.44;5033972;28;19939;-74
2023/10/24 04:06:27;;;;;;;;;;;;;;;10.55;100.00;100254.09;5034918;28;19920;-73
2023/10/24 04:08:52;;;;;;;;;;;;;;;10.59;100.00;100252.84;5014706;28;19920;-72
2023/10/24 04:11:17;;;;;;;;;;;;;;;10.53;100.00;100256.94;5031794;28;20492;-74
2023/10/24 04:13:43;;;;;;;;;;;;;;;10.52;100.00;100238.25;5015601;28;20498;-72
2023/10/24 04:16:08;;;;;;;;;;;;;;;10.58;100.00;100251.16;5031348;28;20580;-73
2023/10/24 04:18:33;;;;;;;;;;;;;;;10.53;100.00;100242.63;5034762;28;19927;-73
2023/10/24 04:20:59;;;;;;;;;;;;;;;10.50;100.00;100249.97;5015854;28;19921;-74
2023/10/24 04:23:24;;;;;;;;;;;;;;;10.49;100.00;100237.53;5030360;28;19920;-74
2023/10/24 04:25:49;;;;;;;;;;;;;;;10.50;100.00;100233.88;5039441;28;19921;-75
2023/10/24 04:28:15;;;;;;;;;;;;;;;10.52;100.00;100232.88;5031036;28;19921;-72
2023/10/24 04:30:40;;;;;;;;;;;;;;;10.50;100.00;100224.97;5019776;28;19946;-73
2023/10/24 04:33:06;;;;;;;;;;;;;;;10.49;100.00;100228.66;5036589;28;19996;-75
2023/10/24 04:35:31;;;;;;;;;;;;;;;10.50;100.00;100220.44;5036768;28;20343;-76
2023/10/24 04:37:57;;;;;;;;;;;;;;;10.47;100.00;100207.28;5037017;28;19946;-72
2023/10/24 04:40:23;;;;;;;;;;;;;;;10.50;100.00;100211.56;5021203;28;20017;-74
2023/10/24 04:42:49;;;;;;;;;;;;;;;10.47;100.00;100211.81;5021684;28;19962;-73
2023/10/24 04:45:14;;;;;;;;;;;;;;;10.50;100.00;100208.88;5037207;28;19920;-74
2023/10/24 04:47:39;;;;;;;;;;;;;;;10.46;100.00;100219.00;5030627;28;19927;-75
2023/10/24 04:50:05;;;;;;;;;;;;;;;10.44;100.00;100212.97;5033610;28;19947;-77
2023/10/24 04:52:30;;;;;;;;;;;;;;;10.44;100.00;100210.28;5013241;28;19925;-74
2023/10/24 04:54:55;;;;;;;;;;;;;;;10.42;100.00;100208.69;5029930;28;20370;-74
2023/10/24 04:57:21;;;;;;;;;;;;;;;10.40;100.00;100208.84;5030058;28;20101;-74
2023/10/24 04:59:46;;;;;;;;;;;;;;;10.46;100.00;100210.13;5034664;28;19920;-72
2023/10/24 05:02:11;;;;;;;;;;;;;;;10.41;100.00;100207.84;5034892;28;20400;-74
2023/10/24 05:04:36;;;;;;;;;;;;;;;10.41;100.00;100210.53;5032275;28;20370;-73
2023/10/24 05:07:01;;;;;;;;;;;;;;;10.40;100.00;100206.16;5029564;28;20379;-73
2023/10/24 05:09:27;;;;;;;;;;;;;;;10.42;100.00;100212.25;5015756;28;20339;-76
2023/10/24 05:11:52;;;;;;;;;;;;;;;10.38;100.00;100212.59;5032970;28;19924;-73
2023/10/24 05:14:17;;;;;;;;;;;;;;;10.42;100.00;100222.97;5026937;28;19921;-74
2023/10/24 05:16:42;;;;;;;;;;;;;;;10.40;100.00;100230.31;5028227;28;19956;-73
2023/10/24 05:19:08;;;;;;;;;;;;;;;10.44;100.00;100217.47;5034004;28;19999;-72
2023/10/24 05:21:33;;;;;;;;;;;;;;;10.35;100.00;100225.28;5030814;28;20247;-76
2023/10/24 05:23:59;;;;;;;;;;;;;;;10.35;100.00;100230.66;5032719;28;20024;-75
2023/10/24 05:26:24;;;;;;;;;;;;;;;10.35;100.00;100225.28;5032746;28;20016;-74
2023/10/24 05:28:49;;;;;;;;;;;;;;;10.39;100.00;100227.75;5031111;28;20017;-73
2023/10/24 05:31:15;;;;;;;;;;;;;;;10.35;100.00;100225.28;5031441;28;20322;-74
2023/10/24 05:33:40;;;;;;;;;;;;;;;10.33;100.00;100224.56;5030129;28;20398;-73
2023/10/24 05:36:06;;;;;;;;;;;;;;;10.38;100.00;100205.41;5034709;28;20630;-73
2023/10/24 05:38:34;;;;;;;;;;;;;;;10.32;100.00;100209.47;5026103;28;19928;-73
2023/10/24 05:41:00;;;;;;;;;;;;;;;10.32;100.00;100225.56;5029582;28;19974;-76
2023/10/24 05:43:25;;;;;;;;;;;;;;;10.31;100.00;100210.47;5031551;28;20279;-77
2023/10/24 05:45:50;;;;;;;;;;;;;;;10.31;100.00;100182.75;5034003;28;20461;-73
2023/10/24 05:48:15;;;;;;;;;;;;;;;10.27;100.00;100190.25;5032688;28;19993;-74
2023/10/24 05:50:42;;;;;;;;;;;;;;;10.31;100.00;100191.69;5034463;28;19960;-73
2023/10/24 05:53:07;;;;;;;;;;;;;;;10.29;100.00;100199.00;5029371;28;19920;-73
2023/10/24 05:55:35;;;;;;;;;;;;;;;10.27;100.00;100197.44;5030623;28;20455;-72
2023/10/24 05:58:00;;;;;;;;;;;;;;;10.24;100.00;100203.91;5029124;28;19921;-72
2023/10/24 06:00:26;;;;;;;;;;;;;;;10.27;100.00;100198.28;5013757;28;19957;-72
2023/10/24 06:02:51;;;;;;;;;;;;;;;10.27;100.00;100203.66;5028415;28;19920;-72
2023/10/24 06:05:16;;;;;;;;;;;;;;;10.30;100.00;100199.84;5034374;28;19971;-72
2023/10/24 06:07:41;;;;;;;;;;;;;;;10.26;100.00;100215.38;5032862;28;20041;-73
2023/10/24 06:10:07;;;;;;;;;;;;;;;10.26;100.00;100211.81;5036126;28;20367;-73
2023/10/24 06:12:32;;;;;;;;;;;;;;;10.28;100.00;100216.09;5027799;28;19949;-76
2023/10/24 06:14:57;;;;;;;;;;;;;;;10.20;100.00;100221.25;5031093;28;19929;-76
2023/10/24 06:17:23;;;;;;;;;;;;;;;10.23;100.00;100236.22;5016650;28;19964;-75
2023/10/24 06:19:49;;;;;;;;;;;;;;;10.15;100.00;100235.06;5015199;28;19917;-74
2023/10/24 06:22:14;;;;;;;;;;;;;;;10.18;100.00;100242.00;5032185;28;20594;-77
2023/10/24 06:24:39;;;;;;;;;;;;;;;10.23;100.00;100242.47;5030888;28;19916;-74
2023/10/24 06:27:05;;;;;;;;;;;;;;;10.17;100.00;100232.25;5031857;28;20320;-74
2023/10/24 06:29:30;;;;;;;;;;;;;;;10.13;100.00;100223.63;5034619;28;20354;-74
2023/10/24 06:31:56;;;;;;;;;;;;;;;10.14;100.00;100213.72;5028309;28;20365;-73
2023/10/24 06:34:21;;;;;;;;;;;;;;;10.12;100.00;100203.16;5032895;28;19933;-72
2023/10/24 06:36:46;;;;;;;;;;;;;;;10.09;100.00;100195.38;5048307;28;19925;-72
2023/10/24 06:39:12;;;;;;;;;;;;;;;10.03;100.00;100211.97;5029778;28;19927;-74
2023/10/24 06:41:37;;;;;;;;;;;;;;;10.00;100.00;100229.19;5031660;28;19960;-77
2023/10/24 06:44:02;;;;;;;;;;;;;;;10.04;100.00;100230.63;5029914;28;19928;-72
2023/10/24 06:46:27;;;;;;;;;;;;;;;10.07;100.00;100237.56;5030002;28;20378;-74
2023/10/24 06:48:53;;;;;;;;;;;;;;;10.07;100.00;100240.25;5033671;28;19987;-74
2023/10/24 06:51:18;;;;;;;;;;;;;;;10.09;100.00;100248.13;5017406;28;19937;-73
2023/10/24 06:53:43;;;;;;;;;;;;;;;10.11;100.00;100238.13;5016936;28;20383;-73
2023/10/24 06:56:08;;;;;;;;;;;;;;;10.13;100.00;100238.84;5032096;28;20406;-73
2023/10/24 06:58:34;;;;;;;;;;;;;;;10.20;100.00;100250.78;5031092;28;19920;-74
2023/10/24 07:00:59;;;;;;;;;;;;;;;10.14;100.00;100241.44;5030436;28;20387;-73
2023/10/24 07:03:24;;;;;;;;;;;;;;;10.14;100.00;100241.44;5030385;28;19920;-74
2023/10/24 07:05:51;;;;;;;;;;;;;;;10.16;100.00;100241.28;5031041;28;20358;-74
2023/10/24 07:08:16;;;;;;;;;;;;;;;10.22;100.00;100230.03;5030456;28;19959;-74
2023/10/24 07:10:42;;;;;;;;;;;;;;;10.22;100.00;100235.41;5018558;28;20343;-75
2023/10/24 07:13:07;;;;;;;;;;;;;;;10.16;100.00;100230.53;5035893;28;19921;-74
2023/10/24 07:15:32;;;;;;;;;;;;;;;10.14;100.00;100219.97;5049592;28;19967;-71
2023/10/24 07:17:57;;;;;;;;;;;;;;;10.16;100.00;100215.31;5036185;28;20066;-71
2023/10/24 07:20:22;;;;;;;;;;;;;;;10.23;100.00;100214.75;5032706;28;19925;-71
2023/10/24 07:22:48;;;;;;;;;;;;;;;10.15;100.00;100213.63;5017793;28;20251;-73
2023/10/24 07:25:13;;;;;;;;;;;;;;;10.26;100.00;100233.28;5033873;28;19925;-73
2023/10/24 07:27:38;;;;;;;;;;;;;;;10.25;100.00;100227.09;5030163;28;20464;-74
2023/10/24 07:30:04;;;;;;;;;;;;;;;10.26;100.00;100226.09;5030972;28;19929;-74
2023/10/24 07:32:31;;;;;;;;;;;;;;;10.26;100.00;100212.69;5032050;28;22577;-75
2023/10/24 07:34:56;;;;;;;;;;;;;;;10.33;100.00;100208.47;5033279;28;19999;-74
2023/10/24 07:37:22;;;;;;;;;;;;;;;10.31;100.00;100223.88;5033472;28;19964;-74
2023/10/24 07:39:47;;;;;;;;;;;;;;;10.31;100.00;100223.00;5031713;28;20386;-73
2023/10/24 07:42:13;;;;;;;;;;;;;;;10.33;100.00;100207.63;5035433;28;19928;-73
2023/10/24 07:44:38;;;;;;;;;;;;;;;10.38;100.00;100217.94;5031049;28;19916;-73
2023/10/24 07:47:03;;;;;;;;;;;;;;;10.39;100.00;100233.09;5034477;28;19921;-76
2023/10/24 07:49:29;;;;;;;;;;;;;;;10.40;100.00;100224.06;5032715;28;19927;-73
2023/10/24 07:51:54;;;;;;;;;;;;;;;10.42;100.00;100214.06;5030982;28;20000;-72
2023/10/24 07:54:20;;;;;;;;;;;;;;;10.47;100.00;100218.03;5032606;28;19964;-74
2023/10/24 07:56:45;;;;;;;;;;;;;;;10.48;100.00;100213.53;5017687;28;20163;-74
2023/10/24 07:59:10;;;;;;;;;;;;;;;10.48;100.00;100209.00;5034369;28;19935;-73
2023/10/24 08:01:35;;;;;;;;;;;;;;;10.53;100.00;100205.94;5032698;28;20031;-72
2023/10/24 08:04:01;;;;;;;;;;;;;;;10.58;100.00;100206.38;5031409;28;19916;-72
2023/10/24 08:06:26;;;;;;;;;;;;;;;10.58;100.00;100198.31;5035085;28;19925;-73
2023/10/24 08:08:51;;;;;;;;;;;;;;;10.57;100.00;100210.03;5066487;28;19917;-73
2023/10/24 08:11:17;;;;;;;;;;;;;;;10.55;100.00;100212.00;5047741;28;19924;-74
2023/10/24 08:13:42;;;;;;;;;;;;;;;10.63;100.00;100197.91;5016928;28;20351;-75
2023/10/24 08:16:07;;;;;;;;;;;;;;;10.70;100.00;100192.84;5030734;28;19921;-72
2023/10/24 08:18:34;;;;;;;;;;;;;;;10.75;100.00;100198.66;5032902;28;19970;-73
2023/10/24 08:20:59;;;;;;;;;;;;;;;10.76;100.00;100194.97;5032762;28;20024;-75
2023/10/24 08:23:25;;;;;;;;;;;;;;;10.87;100.00;100192.16;5031864;28;20270;-71
2023/10/24 08:25:51;;;;;;;;;;;;;;;10.90;100.00;100194.59;5031383;28;19932;-73
2023/10/24 08:28:16;;;;;;;;;;;;;;;10.99;100.00;100195.59;5016141;28;19916;-73
2023/10/24 08:30:41;;;;;;;;;;;;;;;11.08;100.00;100197.47;5033727;28;20358;-75
2023/10/24 08:33:06;;;;;;;;;;;;;;;11.20;100.00;100200.03;5033942;28;20351;-71
2023/10/24 08:35:32;;;;;;;;;;;;;;;11.29;100.00;100204.53;5031145;28;20005;-73
2023/10/24 08:37:57;;;;;;;;;;;;;;;11.26;100.00;100204.81;5031680;28;20035;-73
2023/10/24 08:40:22;;;;;;;;;;;;;;;11.35;100.00;100219.28;5033969;28;19943;-74
2023/10/24 08:42:47;;;;;;;;;;;;;;;11.29;100.00;100226.03;5028518;28;20302;-73
2023/10/24 08:45:13;;;;;;;;;;;;;;;11.30;100.00;100221.53;5029510;28;20370;-73
2023/10/24 08:47:41;;;;;;;;;;;;;;;11.37;100.00;100238.81;5014975;28;19921;-75
2023/10/24 08:50:06;;;;;;;;;;;;;;;11.37;100.00;100238.81;5026549;28;19924;-75
2023/10/24 08:52:31;;;;;;;;;;;;;;;11.57;100.00;100238.81;5026380;28;19977;-77
2023/10/24 08:55:00;;;;;;;;;;;;;;;11.60;100.00;100230.47;5030430;28;19994;-76
2023/10/24 08:57:31;;;;;;;;;;;;;;;11.70;100.00;100237.56;5030048;28;19921;-73
2023/10/24 08:59:57;;;;;;;;;;;;;;;11.77;100.00;100226.22;5017591;28;19921;-75
2023/10/24 09:02:22;;;;;;;;;;;;;;;11.67;100.00;100228.91;5031666;28;19921;-74
2023/10/24 09:04:47;;;;;;;;;;;;;;;11.69;100.00;100224.22;5017738;28;20330;-75
2023/10/24 09:07:13;;;;;;;;;;;;;;;11.80;100.00;100213.34;5029711;28;20361;-74
2023/10/24 09:09:38;;;;;;;;;;;;;;;11.73;100.00;100219.44;5030605;28;19920;-73
2023/10/24 09:12:05;;;;;;;;;;;;;;;11.81;100.00;100227.63;5028715;28;19964;-74
2023/10/24 09:14:30;;;;;;;;;;;;;;;11.94;100.00;100217.44;5028960;28;19971;-74
2023/10/24 09:16:57;;;;;;;;;;;;;;;11.86;100.00;100209.22;5027319;28;19992;-75
2023/10/24 09:19:22;;;;;;;;;;;;;;;12.03;100.00;100209.53;5027936;28;19921;-74
2023/10/24 09:21:49;;;;;;;;;;;;;;;12.05;100.00;100189.53;5013825;28;19987;-72
2023/10/24 09:24:14;;;;;;;;;;;;;;;12.18;100.00;100209.94;5027138;28;20020;-74
2023/10/24 09:26:40;;;;;;;;;;;;;;;12.19;100.00;100200.81;5016997;28;20016;-73
2023/10/24 09:29:08;;;;;;;;;;;;;;;12.28;100.00;100194.56;5034687;28;19920;-73
2023/10/24 09:31:34;;;;;;;;;;;;;;;12.44;100.00;100191.28;5029675;28;19929;-73
2023/10/24 09:33:59;;;;;;;;;;;;;;;12.36;100.00;100183.06;5027331;28;20417;-74
2023/10/24 09:36:27;;;;;;;;;;;;;;;12.29;100.00;100182.81;5011614;28;20340;-76
2023/10/24 09:38:54;;;;;;;;;;;;;;;12.25;100.00;100181.41;5030201;28;20386;-73
2023/10/24 09:41:19;;;;;;;;;;;;;;;12.07;100.00;100192.94;5036075;28;20196;-76
2023/10/24 09:43:46;;;;;;;;;;;;;;;12.10;100.00;100195.34;5020166;28;20032;-73
2023/10/24 09:46:11;;;;;;;;;;;;;;;12.22;100.00;100197.84;5032589;28;20051;-73
2023/10/24 09:48:37;;;;;;;;;;;;;;;12.24;100.00;100199.41;5033092;28;20625;-76
2023/10/24 09:51:02;;;;;;;;;;;;;;;12.10;100.00;100213.31;5042059;28;20255;-73
2023/10/24 09:53:27;;;;;;;;;;;;;;;12.02;100.00;100205.13;5032751;28;20378;-74
2023/10/24 09:55:52;;;;;;;;;;;;;;;12.13;100.00;100200.44;5071396;28;20355;-73
2023/10/24 09:58:20;;;;;;;;;;;;;;;12.17;100.00;100200.16;5032722;28;20340;-75
2023/10/24 10:00:46;;;;;;;;;;;;;;;12.19;100.00;100198.13;5037405;28;19947;-74
2023/10/24 10:03:11;;;;;;;;;;;;;;;12.28;100.00;100186.50;5031424;28;19920;-75
2023/10/24 10:05:37;;;;;;;;;;;;;;;12.18;100.00;100199.16;5019253;28;19920;-75
2023/10/24 10:08:02;;;;;;;;;;;;;;;12.10;100.00;100192.66;5030033;28;19959;-74
2023/10/24 10:10:28;;;;;;;;;;;;;;;12.17;100.00;100194.78;5018532;28;20018;-74
2023/10/24 10:12:56;;;;;;;;;;;;;;;12.13;100.00;100197.75;5037151;28;19987;-76
2023/10/24 10:15:42;;;;;;;;;;;;;;;12.17;100.00;100190.22;5032601;28;19971;-74
2023/10/24 10:18:15;;;;;;;;;;;;;;;12.27;100.00;100195.56;5034210;28;19920;-73
2023/10/24 10:20:59;;;;;;;;;;;;;;;12.38;100.00;100194.53;5016837;28;19920;-75
2023/10/24 10:23:43;;;;;;;;;;;;;;;12.50;100.00;100197.91;5046019;28;19990;-74
2023/10/24 10:26:08;;;;;;;;;;;;;;;12.37;100.00;100196.41;5038178;28;20290;-75
2023/10/24 10:28:49;;;;;;;;;;;;;;;12.35;100.00;100201.09;5032606;28;19921;-76
2023/10/24 10:31:26;;;;;;;;;;;;;;;12.34;100.00;100191.31;5032329;28;19933;-75
2023/10/24 10:33:51;;;;;;;;;;;;;;;12.28;100.00;100197.28;5036069;28;20290;-76
2023/10/24 10:36:17;;;;;;;;;;;;;;;12.18;100.00;100186.53;5033291;28;20371;-77
2023/10/24 10:38:46;;;;;;;;;;;;;;;12.25;100.00;100181.41;5033641;28;19927;-76
2023/10/24 10:41:23;;;;;;;;;;;;;;;12.25;100.00;100194.88;5034736;28;20298;-73
2023/10/24 10:43:48;;;;;;;;;;;;;;;12.22;100.00;100179.88;5032539;28;19921;-74
2023/10/24 10:46:25;;;;;;;;;;;;;;;12.23;100.00;100172.63;5035170;28;20405;-76
2023/10/24 10:48:51;;;;;;;;;;;;;;;12.18;100.00;100170.38;5033267;28;19925;-74
2023/10/24 10:51:20;;;;;;;;;;;;;;;12.18;100.00;100165.00;5032699;28;20438;-76
2023/10/24 10:53:54;;;;;;;;;;;;;;;12.30;100.00;100158.47;5034485;28;20313;-73
2023/10/24 10:56:30;;;;;;;;;;;;;;;12.36;100.00;100153.47;5031322;28;20280;-73
2023/10/24 10:59:04;;;;;;;;;;;;;;;12.40;100.00;100154.88;5035768;28;19921;-74
2023/10/24 11:01:36;;;;;;;;;;;;;;;12.35;100.00;100158.00;5035785;28;19930;-78
2023/10/24 11:04:01;;;;;;;;;;;;;;;12.28;100.00;100171.22;5062102;28;19921;-77
2023/10/24 11:06:27;;;;;;;;;;;;;;;12.29;100.00;100164.84;5034048;28;19969;-74
2023/10/24 11:09:05;;;;;;;;;;;;;;;12.41;100.00;100162.81;5028471;28;19920;-76
2023/10/24 11:11:31;;;;;;;;;;;;;;;12.36;100.00;100161.53;5034572;28;19964;-75
2023/10/24 11:13:58;;;;;;;;;;;;;;;12.35;100.00;100159.84;5033078;28;19959;-73
2023/10/24 11:16:23;;;;;;;;;;;;;;;12.32;100.00;100157.44;5027454;28;19935;-74
2023/10/24 11:18:48;;;;;;;;;;;;;;;12.27;100.00;100164.13;5032973;28;19964;-74
2023/10/24 11:21:14;;;;;;;;;;;;;;;12.06;100.00;100160.78;5018676;28;20008;-75
2023/10/24 11:23:43;;;;;;;;;;;;;;;12.02;100.00;100162.09;5030941;28;20050;-76
2023/10/24 11:26:08;;;;;;;;;;;;;;;11.85;100.00;100154.59;5031755;28;19947;-75
2023/10/24 11:28:33;;;;;;;;;;;;;;;11.78;100.00;100163.38;5030837;28;19963;-73
2023/10/24 11:30:59;;;;;;;;;;;;;;;11.68;100.00;100166.06;5030608;28;20344;-73
2023/10/24 11:33:24;;;;;;;;;;;;;;;11.63;100.00;100168.34;5050696;28;20343;-73
2023/10/24 11:35:49;;;;;;;;;;;;;;;11.57;100.00;100172.44;5030434;28;20464;-77
2023/10/24 11:38:15;;;;;;;;;;;;;;;11.50;100.00;100177.56;5034726;28;19924;-75
2023/10/24 11:40:41;;;;;;;;;;;;;;;11.43;100.00;100172.88;5037153;28;19959;-76
2023/10/24 11:43:06;;;;;;;;;;;;;;;11.33;100.00;100170.19;5015519;28;20067;-74
2023/10/24 11:45:32;;;;;;;;;;;;;;;11.24;100.00;100182.66;5014579;28;20153;-73
2023/10/24 11:47:57;;;;;;;;;;;;;;;11.19;100.00;100187.59;5033935;28;19963;-73
2023/10/24 11:50:41;;;;;;;;;;;;;;;11.09;100.00;100187.56;5034989;28;19931;-75
2023/10/24 11:53:06;;;;;;;;;;;;;;;11.00;100.00;100186.53;5031669;28;20651;-75
2023/10/24 11:55:31;;;;;;;;;;;;;;;10.98;100.00;100188.53;5036256;28;20174;-73
2023/10/24 11:57:59;;;;;;;;;;;;;;;11.06;100.00;100191.38;5029717;28;20000;-74
2023/10/24 12:00:30;;;;;;;;;;;;;;;11.05;100.00;100197.72;5033418;28;20298;-74
2023/10/24 12:02:55;;;;;;;;;;;;;;;10.98;100.00;100199.28;5030687;28;20102;-76
2023/10/24 12:05:21;;;;;;;;;;;;;;;10.93;100.00;100194.31;5031754;28;19924;-74
2023/10/24 12:07:52;;;;;;;;;;;;;;;10.77;100.00;100191.31;5033858;28;19967;-75
2023/10/24 12:10:18;;;;;;;;;;;;;;;10.76;100.00;100190.44;5030983;28;19975;-73
2023/10/24 12:12:45;;;;;;;;;;;;;;;10.72;100.00;100194.41;5018752;28;19924;-74
2023/10/24 12:15:10;;;;;;;;;;;;;;;10.65;100.00;100195.94;5030316;28;20186;-74
2023/10/24 12:17:35;;;;;;;;;;;;;;;10.57;100.00;100198.44;5049163;28;20084;-75
2023/10/24 12:20:00;;;;;;;;;;;;;;;10.55;100.00;100200.41;5034717;28;20026;-75
2023/10/24 12:22:25;;;;;;;;;;;;;;;10.58;100.00;100194.78;5016249;28;19927;-74